Time;durP1;ratioP1;P1;durP2;ratioP2;P2;SDS_P1;SDS_P2;PMS_P1;PMS_P2;Temp;Humidity;BMP_temperature;BMP_pressure;BME280_temperature;BME280_humidity;BME280_pressure;Samples;Min_cycle;Max_cycle;Signal;HPM_P1;HPM_P2
2023/09/16 00:02:07;;;;;;;16.38;13.65;;;;;;;14.24;100.00;101213.06;5024170;28;20022;-68
2023/09/16 00:04:32;;;;;;;15.38;13.88;;;;;;;14.23;100.00;101212.19;5018109;28;20056;-68
2023/09/16 00:06:59;;;;;;;16.02;14.48;;;;;;;14.21;100.00;101206.06;5024175;28;20022;-68
2023/09/16 00:09:24;;;;;;;15.00;13.55;;;;;;;14.23;100.00;101214.88;5006466;28;20102;-68
2023/09/16 00:11:50;;;;;;;14.88;13.48;;;;;;;14.17;100.00;101205.41;5024284;28;20120;-68
2023/09/16 00:14:18;;;;;;;15.48;13.88;;;;;;;14.15;100.00;101211.78;5023561;28;20078;-68
2023/09/16 00:16:44;;;;;;;14.57;13.05;;;;;;;14.12;100.00;101209.28;5022408;28;20029;-68
2023/09/16 00:19:10;;;;;;;13.60;12.18;;;;;;;14.10;100.00;101214.75;5021977;28;20345;-68
2023/09/16 00:21:35;;;;;;;13.95;12.68;;;;;;;14.04;100.00;101227.63;5021259;28;20036;-68
2023/09/16 00:24:00;;;;;;;13.90;12.55;;;;;;;14.03;100.00;101232.13;5023130;28;20052;-68
2023/09/16 00:26:27;;;;;;;14.32;12.95;;;;;;;14.01;100.00;101231.38;5022856;28;20024;-67
2023/09/16 00:28:52;;;;;;;14.80;13.18;;;;;;;14.03;100.00;101231.25;5022710;28;20021;-68
2023/09/16 00:31:17;;;;;;;14.13;12.68;;;;;;;13.98;100.00;101236.03;5022465;28;20377;-68
2023/09/16 00:33:43;;;;;;;15.23;13.70;;;;;;;13.99;100.00;101230.56;5019298;28;20033;-68
2023/09/16 00:36:09;;;;;;;14.43;13.02;;;;;;;14.02;100.00;101232.22;5019659;28;20032;-68
2023/09/16 00:38:34;;;;;;;13.82;12.35;;;;;;;13.99;100.00;101227.91;5005881;28;20060;-65
2023/09/16 00:41:00;;;;;;;14.07;12.60;;;;;;;13.94;100.00;101220.16;5024551;28;20025;-67
2023/09/16 00:43:25;;;;;;;14.35;12.95;;;;;;;13.92;100.00;101207.81;5005729;28;20029;-68
2023/09/16 00:45:51;;;;;;;13.82;12.40;;;;;;;13.94;100.00;101213.94;5023715;28;20515;-68
2023/09/16 00:48:18;;;;;;;14.20;12.80;;;;;;;13.93;100.00;101221.09;5022438;28;20040;-68
2023/09/16 00:50:45;;;;;;;16.80;12.95;;;;;;;13.93;100.00;101213.06;5023561;28;20045;-67
2023/09/16 00:53:12;;;;;;;14.65;13.27;;;;;;;13.92;100.00;101214.03;5019940;28;20277;-67
2023/09/16 00:55:38;;;;;;;15.25;13.63;;;;;;;13.94;100.00;101205.91;5023006;28;20343;-67
2023/09/16 00:58:09;;;;;;;15.90;14.10;;;;;;;13.90;100.00;101202.53;5024089;28;20041;-68
2023/09/16 01:00:35;;;;;;;14.77;13.48;;;;;;;13.90;100.00;101201.69;5023650;28;20294;-68
2023/09/16 01:03:01;;;;;;;15.15;13.65;;;;;;;13.85;100.00;101198.44;5021981;28;20537;-68
2023/09/16 01:05:27;;;;;;;15.57;14.00;;;;;;;13.85;100.00;101198.44;5021024;28;20034;-68
2023/09/16 01:07:52;;;;;;;15.93;13.98;;;;;;;13.84;100.00;101194.91;5021395;28;20071;-68
2023/09/16 01:10:18;;;;;;;14.60;13.20;;;;;;;13.77;100.00;101190.00;5021075;28;20460;-68
2023/09/16 01:12:45;;;;;;;16.20;13.70;;;;;;;13.71;100.00;101191.22;4997790;28;20033;-68
2023/09/16 01:15:13;;;;;;;14.48;13.10;;;;;;;13.64;100.00;101189.84;5020601;28;20037;-69
2023/09/16 01:18:14;;;;;;;14.90;13.32;;;;;;;13.73;100.00;101191.97;5017579;28;20593;-66
2023/09/16 01:20:40;;;;;;;14.88;13.45;;;;;;;13.67;100.00;101192.34;5011879;28;20045;-68
2023/09/16 01:23:07;;;;;;;14.85;13.45;;;;;;;13.65;100.00;101191.56;5020195;28;20440;-68
2023/09/16 01:25:33;;;;;;;14.40;13.10;;;;;;;13.65;100.00;101191.56;5023198;28;20061;-67
2023/09/16 01:27:58;;;;;;;14.60;13.20;;;;;;;13.59;100.00;101182.09;5022203;28;20033;-71
2023/09/16 01:30:28;;;;;;;14.43;13.07;;;;;;;13.55;100.00;101187.72;5022264;28;20230;-67
2023/09/16 01:32:56;;;;;;;13.93;12.63;;;;;;;13.51;100.00;101188.84;5021258;28;20468;-68
2023/09/16 01:35:24;;;;;;;14.15;12.77;;;;;;;13.49;100.00;101193.38;5020852;28;20025;-67
2023/09/16 01:37:51;;;;;;;13.65;12.35;;;;;;;13.51;100.00;101192.38;5021167;28;20034;-67
2023/09/16 01:40:18;;;;;;;13.55;12.35;;;;;;;13.49;100.00;101186.22;5019550;28;20069;-68
2023/09/16 01:42:45;;;;;;;14.40;13.00;;;;;;;13.45;100.00;101180.19;5016734;28;20092;-68
2023/09/16 01:45:10;;;;;;;13.50;12.20;;;;;;;13.44;100.00;101180.28;5015636;28;20248;-67
2023/09/16 01:47:36;;;;;;;14.65;13.30;;;;;;;13.42;100.00;101180.38;5021386;28;20025;-68
2023/09/16 01:50:02;;;;;;;13.25;12.05;;;;;;;13.39;100.00;101175.22;5021548;28;20041;-67
2023/09/16 01:52:28;;;;;;;12.93;11.77;;;;;;;13.37;100.00;101169.06;4999696;28;20508;-68
2023/09/16 01:54:53;;;;;;;12.82;11.63;;;;;;;13.40;100.00;101171.56;5011721;28;20033;-68
2023/09/16 01:57:18;;;;;;;12.80;11.60;;;;;;;13.33;100.00;101170.19;5003652;28;20036;-68
2023/09/16 01:59:44;;;;;;;12.52;11.32;;;;;;;13.31;100.00;101171.25;5020829;28;20514;-66
2023/09/16 02:02:10;;;;;;;13.45;12.23;;;;;;;13.27;100.00;101167.88;5020513;28;20408;-67
2023/09/16 02:04:38;;;;;;;12.27;11.18;;;;;;;13.23;100.00;101168.16;5019573;28;20029;-67
2023/09/16 02:07:04;;;;;;;13.20;11.90;;;;;;;13.27;100.00;101170.56;5019249;28;20053;-67
2023/09/16 02:09:30;;;;;;;12.77;11.60;;;;;;;13.26;100.00;101168.84;5022158;28;20045;-67
2023/09/16 02:11:55;;;;;;;13.63;12.32;;;;;;;13.25;100.00;101168.91;5021717;28;20513;-67
2023/09/16 02:14:20;;;;;;;13.05;11.80;;;;;;;13.24;100.00;101169.88;5020922;28;20250;-67
2023/09/16 02:16:46;;;;;;;13.93;12.68;;;;;;;13.22;100.00;101172.59;5021594;28;20384;-66
2023/09/16 02:19:11;;;;;;;14.13;12.63;;;;;;;13.20;100.00;101164.66;5021201;28;20476;-67
2023/09/16 02:21:37;;;;;;;13.82;12.52;;;;;;;13.21;100.00;101162.88;5021958;28;20037;-67
2023/09/16 02:24:03;;;;;;;15.43;13.82;;;;;;;13.23;100.00;101173.50;5021493;28;20049;-67
2023/09/16 02:26:28;;;;;;;14.30;12.93;;;;;;;13.20;100.00;101170.00;5020315;28;20036;-67
2023/09/16 02:28:54;;;;;;;14.45;13.13;;;;;;;13.15;100.00;101173.88;5021876;28;20356;-67
2023/09/16 02:31:19;;;;;;;15.65;14.18;;;;;;;13.10;100.00;101179.50;5021650;28;21944;-67
2023/09/16 02:33:44;;;;;;;15.25;13.75;;;;;;;13.05;100.00;101180.72;5022229;28;20542;-66
2023/09/16 02:36:10;;;;;;;16.33;14.63;;;;;;;13.03;100.00;101178.09;5020979;28;20204;-67
2023/09/16 02:38:35;;;;;;;15.85;14.13;;;;;;;13.00;100.00;101172.06;5021792;28;20057;-67
2023/09/16 02:41:04;;;;;;;17.23;15.20;;;;;;;12.95;100.00;101183.00;5021215;28;20033;-66
2023/09/16 02:43:30;;;;;;;17.52;15.73;;;;;;;12.99;100.00;101178.38;5008031;28;20064;-66
2023/09/16 02:45:56;;;;;;;16.48;14.88;;;;;;;13.02;100.00;101176.38;5020697;28;20496;-67
2023/09/16 02:48:21;;;;;;;16.30;14.80;;;;;;;13.05;100.00;101170.03;5019734;28;20068;-67
2023/09/16 02:50:47;;;;;;;15.65;14.05;;;;;;;13.00;100.00;101159.59;5019762;28;20493;-68
2023/09/16 02:53:13;;;;;;;17.05;15.32;;;;;;;13.03;100.00;101169.22;5019974;28;20483;-67
2023/09/16 02:55:38;;;;;;;16.30;14.70;;;;;;;13.02;100.00;101162.16;5021048;28;20041;-67
2023/09/16 02:58:04;;;;;;;16.98;15.27;;;;;;;13.02;100.00;101157.69;5020440;28;20074;-67
2023/09/16 03:00:29;;;;;;;16.88;15.25;;;;;;;12.98;100.00;101160.63;5003074;28;20057;-66
2023/09/16 03:02:56;;;;;;;16.98;15.23;;;;;;;12.97;100.00;101167.78;5021714;28;20025;-68
2023/09/16 03:05:21;;;;;;;16.20;14.52;;;;;;;12.96;100.00;101158.03;5021220;28;20040;-68
2023/09/16 03:07:46;;;;;;;15.30;13.70;;;;;;;12.92;100.00;101167.19;5020986;28;20041;-68
2023/09/16 03:10:12;;;;;;;15.73;14.23;;;;;;;12.91;100.00;101163.63;5019177;28;20026;-68
2023/09/16 03:12:37;;;;;;;15.38;13.88;;;;;;;12.86;100.00;101160.34;5019861;28;20475;-67
2023/09/16 03:15:03;;;;;;;15.38;13.98;;;;;;;12.89;100.00;101160.19;5022011;28;20025;-67
2023/09/16 03:17:29;;;;;;;16.02;14.52;;;;;;;12.88;100.00;101157.59;5025162;28;20041;-68
2023/09/16 03:19:55;;;;;;;16.33;14.77;;;;;;;12.86;100.00;101155.00;5025934;28;20224;-68
2023/09/16 03:22:20;;;;;;;16.50;15.00;;;;;;;12.83;100.00;101152.53;5020351;28;20025;-67
2023/09/16 03:24:46;;;;;;;15.57;14.00;;;;;;;12.79;100.00;101158.09;5025086;28;20091;-67
2023/09/16 03:27:11;;;;;;;17.60;14.45;;;;;;;12.77;100.00;101160.00;5024744;28;20407;-67
2023/09/16 03:29:36;;;;;;;15.35;13.88;;;;;;;12.74;100.00;101153.00;5019668;28;20098;-68
2023/09/16 03:32:02;;;;;;;15.43;13.98;;;;;;;12.74;100.00;101154.81;5016224;28;20037;-67
2023/09/16 03:34:27;;;;;;;15.70;14.30;;;;;;;12.63;100.00;101153.59;5024652;28;20025;-66
2023/09/16 03:36:53;;;;;;;16.05;14.65;;;;;;;12.59;100.00;101151.19;5019274;28;20032;-67
2023/09/16 03:39:19;;;;;;;15.90;14.40;;;;;;;12.58;100.00;101149.44;5024244;28;20025;-67
2023/09/16 03:41:45;;;;;;;15.98;14.52;;;;;;;12.54;100.00;101158.56;5025076;28;20032;-67
2023/09/16 03:44:11;;;;;;;15.63;14.23;;;;;;;12.52;100.00;101145.31;5024179;28;20029;-67
2023/09/16 03:46:37;;;;;;;15.95;14.35;;;;;;;12.49;100.00;101150.81;5025189;28;20021;-67
2023/09/16 03:49:02;;;;;;;15.40;13.95;;;;;;;12.53;100.00;101140.81;5002021;28;20029;-67
2023/09/16 03:51:28;;;;;;;15.15;13.75;;;;;;;12.51;100.00;101140.91;5022140;28;20287;-67
2023/09/16 03:53:54;;;;;;;15.38;13.85;;;;;;;12.51;100.00;101138.25;5023818;28;20029;-68
2023/09/16 03:56:19;;;;;;;16.10;14.60;;;;;;;12.46;100.00;101133.16;5020191;28;20064;-67
2023/09/16 03:58:45;;;;;;;15.48;14.07;;;;;;;12.50;100.00;101124.97;5024805;28;20029;-68
2023/09/16 04:01:10;;;;;;;16.23;14.63;;;;;;;12.46;100.00;101125.16;5025085;28;20079;-67
2023/09/16 04:03:36;;;;;;;14.68;13.27;;;;;;;12.41;100.00;101124.50;5024821;28;20037;-68
2023/09/16 04:06:03;;;;;;;16.27;14.82;;;;;;;12.46;100.00;101135.84;5024728;28;20064;-67
2023/09/16 04:08:29;;;;;;;16.17;14.45;;;;;;;12.41;100.00;101132.53;5024033;28;20160;-67
2023/09/16 04:10:56;;;;;;;16.05;14.40;;;;;;;12.32;100.00;101138.38;5024100;28;20266;-67
2023/09/16 04:13:22;;;;;;;15.50;14.10;;;;;;;12.27;100.00;101135.09;5021457;28;20527;-67
2023/09/16 04:15:47;;;;;;;16.17;14.68;;;;;;;12.23;100.00;101136.19;5023804;28;20038;-68
2023/09/16 04:18:13;;;;;;;18.05;16.45;;;;;;;12.15;100.00;101130.41;5023836;28;20495;-67
2023/09/16 04:20:38;;;;;;;17.63;16.00;;;;;;;12.15;100.00;101133.06;5023452;28;20041;-67
2023/09/16 04:23:03;;;;;;;17.60;15.90;;;;;;;12.14;100.00;101129.53;5023148;28;20025;-67
2023/09/16 04:25:29;;;;;;;17.20;15.60;;;;;;;12.16;100.00;101126.78;5023752;28;20025;-67
2023/09/16 04:27:55;;;;;;;17.02;15.32;;;;;;;12.15;100.00;101133.91;5020775;28;20030;-67
2023/09/16 04:30:20;;;;;;;17.10;15.55;;;;;;;12.15;100.00;101125.91;5002491;28;20033;-67
2023/09/16 04:32:46;;;;;;;15.52;14.05;;;;;;;12.19;100.00;101121.28;5022619;28;20036;-67
2023/09/16 04:35:11;;;;;;;15.77;14.38;;;;;;;12.14;100.00;101123.34;5023788;28;20480;-68
2023/09/16 04:37:36;;;;;;;15.98;14.40;;;;;;;12.11;100.00;101119.00;5022921;28;20607;-68
2023/09/16 04:40:20;;;;;;;16.98;15.40;;;;;;;12.08;100.00;101118.31;5023845;28;20033;-67
2023/09/16 04:42:46;;;;;;;16.85;15.25;;;;;;;12.09;100.00;101115.59;5017774;28;20034;-68
2023/09/16 04:45:11;;;;;;;16.98;15.38;;;;;;;12.09;100.00;101117.38;5024335;28;20076;-68
2023/09/16 04:47:36;;;;;;;17.90;16.25;;;;;;;12.11;100.00;101115.50;5023209;28;20488;-68
2023/09/16 04:50:02;;;;;;;17.42;15.73;;;;;;;12.12;100.00;101125.22;5023287;28;20557;-68
2023/09/16 04:52:27;;;;;;;17.35;15.55;;;;;;;12.08;100.00;101113.88;5022182;28;20033;-68
2023/09/16 04:54:53;;;;;;;16.85;15.25;;;;;;;12.11;100.00;101115.50;5022884;28;20096;-68
2023/09/16 04:57:20;;;;;;;16.58;15.07;;;;;;;12.13;100.00;101122.47;5022851;28;20090;-66
2023/09/16 04:59:45;;;;;;;16.98;15.27;;;;;;;12.07;100.00;101112.13;5020814;28;20033;-66
2023/09/16 05:02:11;;;;;;;17.35;15.55;;;;;;;12.11;100.00;101120.81;5023460;28;20078;-66
2023/09/16 05:04:37;;;;;;;16.50;14.63;;;;;;;12.09;100.00;101120.06;5023210;28;20041;-67
2023/09/16 05:07:04;;;;;;;17.60;15.85;;;;;;;12.07;100.00;101116.59;5021921;28;20108;-67
2023/09/16 05:09:30;;;;;;;18.25;16.45;;;;;;;12.02;100.00;101114.16;5021215;28;20036;-66
2023/09/16 05:11:56;;;;;;;16.55;14.95;;;;;;;12.07;100.00;101125.47;5022229;28;20029;-67
2023/09/16 05:14:22;;;;;;;17.30;15.60;;;;;;;12.09;100.00;101117.38;5021831;28;20033;-67
2023/09/16 05:16:47;;;;;;;16.33;14.73;;;;;;;12.10;100.00;101116.44;5019778;28;20017;-67
2023/09/16 05:19:12;;;;;;;16.60;15.00;;;;;;;12.10;100.00;101125.31;5020320;28;20025;-68
2023/09/16 05:21:38;;;;;;;15.75;14.35;;;;;;;12.09;100.00;101123.59;5015690;28;20108;-67
2023/09/16 05:24:05;;;;;;;15.68;14.27;;;;;;;12.13;100.00;101126.97;5020607;28;20056;-68
2023/09/16 05:26:31;;;;;;;15.90;14.48;;;;;;;12.11;100.00;101128.81;5019617;28;20060;-68
2023/09/16 05:28:56;;;;;;;16.00;14.50;;;;;;;12.11;100.00;101126.16;5014389;28;20112;-67
2023/09/16 05:31:23;;;;;;;15.18;13.73;;;;;;;12.11;100.00;101128.81;5023328;28;20174;-67
2023/09/16 05:33:49;;;;;;;15.73;14.20;;;;;;;12.10;100.00;101122.63;5022935;28;20064;-67
2023/09/16 05:36:14;;;;;;;15.82;14.27;;;;;;;12.13;100.00;101121.63;5022461;28;20433;-67
2023/09/16 05:38:39;;;;;;;15.65;14.05;;;;;;;12.15;100.00;101122.38;5021304;28;20044;-66
2023/09/16 05:41:05;;;;;;;16.15;14.52;;;;;;;12.18;100.00;101119.56;5022297;28;20093;-67
2023/09/16 05:43:30;;;;;;;15.80;14.30;;;;;;;12.19;100.00;101118.63;5022564;28;20269;-67
2023/09/16 05:45:56;;;;;;;16.60;15.10;;;;;;;12.17;100.00;101113.38;5020618;28;20025;-68
2023/09/16 05:48:21;;;;;;;16.30;14.73;;;;;;;12.27;100.00;101118.22;5022076;28;20060;-67
2023/09/16 05:50:56;;;;;;;16.48;14.60;;;;;;;12.30;100.00;101123.41;5022460;28;20072;-67
2023/09/16 05:53:21;;;;;;;15.65;14.23;;;;;;;12.34;100.00;101122.28;5019923;28;20525;-67
2023/09/16 05:55:47;;;;;;;16.23;14.63;;;;;;;12.35;100.00;101122.19;5022402;28;20332;-67
2023/09/16 05:58:12;;;;;;;16.25;14.75;;;;;;;12.42;100.00;101125.41;5022736;28;20472;-67
2023/09/16 06:00:37;;;;;;;17.25;15.63;;;;;;;12.42;100.00;101131.59;5017820;28;20488;-67
2023/09/16 06:03:03;;;;;;;17.88;16.17;;;;;;;12.45;100.00;101130.56;5020752;28;20025;-68
2023/09/16 06:05:29;;;;;;;70.85;62.78;;;;;;;12.52;100.00;101133.78;5022251;28;20048;-68
2023/09/16 06:07:54;;;;;;;58.90;50.35;;;;;;;12.55;100.00;101139.81;5020740;28;20232;-68
2023/09/16 06:10:20;;;;;;;37.97;33.90;;;;;;;12.64;100.00;101133.09;5021245;28;20495;-67
2023/09/16 06:12:46;;;;;;;35.03;30.02;;;;;;;12.67;100.00;101136.47;5022373;28;20083;-67
2023/09/16 06:15:11;;;;;;;23.67;21.27;;;;;;;12.81;100.00;101140.19;5020726;28;20052;-67
2023/09/16 06:17:37;;;;;;;26.23;23.40;;;;;;;12.97;100.00;101141.06;5019426;28;20061;-66
2023/09/16 06:20:03;;;;;;;20.50;18.50;;;;;;;13.21;100.00;101142.34;5019615;28;20041;-67
2023/09/16 06:22:28;;;;;;;19.98;18.08;;;;;;;13.45;100.00;101141.91;5020518;28;20083;-67
2023/09/16 06:24:54;;;;;;;17.80;16.10;;;;;;;13.67;100.00;101141.53;5017104;28;20483;-67
2023/09/16 06:27:19;;;;;;;19.33;17.42;;;;;;;13.86;100.00;101142.13;5020573;28;20495;-67
2023/09/16 06:29:46;;;;;;;18.52;16.63;;;;;;;14.10;100.00;101141.63;5014045;28;20068;-67
2023/09/16 06:32:12;;;;;;;16.90;15.30;;;;;;;14.33;100.00;101151.75;5019574;28;20064;-67
2023/09/16 06:34:37;;;;;;;18.77;16.98;;;;;;;14.52;100.00;101139.97;5010382;28;20117;-67
2023/09/16 06:37:05;;;;;;;16.98;15.45;;;;;;;14.72;100.00;101146.75;5015598;28;20029;-67
2023/09/16 06:39:31;;;;;;;16.70;15.05;;;;;;;14.92;100.00;101155.25;5015907;28;20033;-67
2023/09/16 06:41:56;;;;;;;16.40;15.00;;;;;;;15.07;100.00;101155.19;5017390;28;20029;-67
2023/09/16 06:44:21;;;;;;;15.88;14.27;;;;;;;15.26;100.00;101160.22;5016910;28;20487;-67
2023/09/16 06:46:47;;;;;;;15.85;14.35;;;;;;;15.44;100.00;101156.34;5017371;28;20036;-68
2023/09/16 06:49:12;;;;;;;16.10;14.70;;;;;;;15.62;100.00;101160.47;5020046;28;20039;-68
2023/09/16 06:51:37;;;;;;;14.98;13.60;;;;;;;15.74;100.00;101145.41;5021046;28;20383;-68
2023/09/16 06:54:03;;;;;;;15.40;14.00;;;;;;;16.00;100.00;101153.50;5018010;28;20328;-67
2023/09/16 06:56:29;;;;;;;15.30;13.82;;;;;;;16.17;100.00;101153.19;5019406;28;20029;-67
2023/09/16 06:58:56;;;;;;;15.60;14.10;;;;;;;16.43;100.00;101146.88;5023475;28;20383;-67
2023/09/16 07:01:25;;;;;;;15.20;13.80;;;;;;;16.61;100.00;101154.59;5022745;28;20033;-70
2023/09/16 07:03:50;;;;;;;14.98;13.38;;;;;;;16.77;100.00;101144.50;5022771;28;20312;-67
2023/09/16 07:06:15;;;;;;;15.25;13.73;;;;;;;17.00;99.81;101144.66;5024577;28;20468;-67
2023/09/16 07:08:41;;;;;;;14.23;12.85;;;;;;;17.24;99.06;101152.75;5020947;28;20464;-68
2023/09/16 07:11:06;;;;;;;14.60;12.88;;;;;;;17.43;97.22;101145.91;5020846;28;20357;-68
2023/09/16 07:13:32;;;;;;;14.52;13.00;;;;;;;17.78;95.83;101146.94;5021851;28;20044;-67
2023/09/16 07:15:57;;;;;;;14.65;13.00;;;;;;;18.16;93.87;101149.34;5015340;28;20060;-67
2023/09/16 07:18:23;;;;;;;13.50;12.10;;;;;;;18.42;92.42;101141.91;5023042;28;20041;-68
2023/09/16 07:20:49;;;;;;;14.32;12.82;;;;;;;18.83;90.60;101152.13;5022369;28;20476;-66
2023/09/16 07:23:15;;;;;;;13.38;12.18;;;;;;;19.22;88.50;101149.00;5022775;28;20471;-67
2023/09/16 07:25:40;;;;;;;13.98;12.38;;;;;;;19.58;87.04;101140.53;5021992;28;20036;-67
2023/09/16 07:28:07;;;;;;;14.07;12.68;;;;;;;19.94;84.31;101143.84;5025369;28;20234;-68
2023/09/16 07:30:36;;;;;;;14.18;11.70;;;;;;;20.31;83.18;101136.09;5025864;28;20053;-67
2023/09/16 07:33:02;;;;;;;12.32;11.13;;;;;;;20.75;80.52;101149.44;5025522;28;20112;-67
2023/09/16 07:35:27;;;;;;;12.75;11.55;;;;;;;20.97;78.34;101138.41;5024314;28;20030;-66
2023/09/16 07:37:53;;;;;;;13.65;11.73;;;;;;;21.39;75.91;101147.19;5023673;28;20510;-66
2023/09/16 07:40:18;;;;;;;12.65;11.45;;;;;;;21.67;74.46;101149.22;5020703;28;20040;-67
2023/09/16 07:42:43;;;;;;;11.68;10.50;;;;;;;22.15;72.87;101142.94;5024904;28;20036;-67
2023/09/16 07:45:09;;;;;;;13.48;12.18;;;;;;;22.50;73.30;101136.84;5024848;28;20045;-67
2023/09/16 07:47:37;;;;;;;12.13;10.80;;;;;;;22.87;71.69;101150.41;5022200;28;20036;-68
2023/09/16 07:50:03;;;;;;;12.18;10.98;;;;;;;23.20;72.10;101148.09;5022403;28;20040;-68
2023/09/16 07:52:29;;;;;;;12.15;10.73;;;;;;;23.43;69.34;101153.94;5024777;28;20241;-68
2023/09/16 07:54:58;;;;;;;12.15;11.05;;;;;;;23.51;67.95;101148.59;5023100;28;20575;-67
2023/09/16 07:57:24;;;;;;;11.02;9.95;;;;;;;23.78;66.27;101151.25;5023863;28;20246;-66
2023/09/16 07:59:49;;;;;;;11.05;9.90;;;;;;;24.10;65.67;101147.09;5024444;28;20430;-67
2023/09/16 08:02:15;;;;;;;11.30;10.20;;;;;;;24.22;65.18;101150.41;5024016;28;20036;-68
2023/09/16 08:04:40;;;;;;;10.80;9.80;;;;;;;24.27;64.53;101159.81;5022330;28;20060;-68
2023/09/16 08:07:06;;;;;;;12.15;10.95;;;;;;;24.30;63.86;101153.19;5004717;28;20399;-68
2023/09/16 08:09:32;;;;;;;11.88;10.57;;;;;;;24.42;63.57;101151.09;5022629;28;20208;-68
2023/09/16 08:11:59;;;;;;;11.45;9.63;;;;;;;24.52;62.39;101154.56;5031485;28;20024;-67
2023/09/16 08:14:24;;;;;;;10.18;9.15;;;;;;;24.64;61.20;101152.41;5024506;28;20388;-68
2023/09/16 08:16:52;;;;;;;11.00;9.95;;;;;;;24.76;61.86;101153.84;5023798;28;20127;-68
2023/09/16 08:19:19;;;;;;;10.80;9.65;;;;;;;25.13;60.06;101169.00;5022007;28;20036;-68
2023/09/16 08:21:44;;;;;;;11.85;9.48;;;;;;;25.21;60.36;101161.72;5024039;28;20025;-68
2023/09/16 08:24:10;;;;;;;9.13;8.32;;;;;;;25.94;58.85;101165.59;5023946;28;20369;-68
2023/09/16 08:26:35;;;;;;;9.05;8.15;;;;;;;26.42;53.89;101159.25;5021337;28;20662;-68
2023/09/16 08:29:00;;;;;;;8.52;7.78;;;;;;;26.67;53.44;101161.91;5024712;28;20456;-68
2023/09/16 08:31:26;;;;;;;7.88;6.95;;;;;;;27.04;50.89;101169.44;5023717;28;20204;-68
2023/09/16 08:33:54;;;;;;;8.05;7.25;;;;;;;27.06;53.36;101170.13;5012766;28;20049;-68
2023/09/16 08:36:21;;;;;;;7.88;7.07;;;;;;;27.50;51.63;101175.88;5023463;28;20047;-68
2023/09/16 08:38:47;;;;;;;9.82;8.73;;;;;;;27.19;51.12;101175.91;5016514;28;20164;-68
2023/09/16 08:41:38;;;;;;;10.10;9.10;;;;;;;27.31;53.54;101179.94;5017872;28;20120;-68
2023/09/16 08:44:05;;;;;;;9.70;8.30;;;;;;;27.54;49.64;101171.75;5005709;28;20040;-68
2023/09/16 08:46:39;;;;;;;8.23;7.43;;;;;;;27.66;49.53;101185.88;5024368;28;20120;-67
2023/09/16 08:49:12;;;;;;;8.80;8.00;;;;;;;28.43;48.27;101182.22;5023537;28;20467;-68
2023/09/16 08:51:41;;;;;;;9.68;8.77;;;;;;;28.24;47.90;101184.41;5017923;28;20025;-68
2023/09/16 08:54:09;;;;;;;10.15;7.93;;;;;;;28.55;46.62;101188.91;5021947;28;20075;-67
2023/09/16 08:56:36;;;;;;;8.55;7.65;;;;;;;28.64;46.75;101185.06;5021931;28;20033;-68
2023/09/16 08:59:02;;;;;;;9.18;8.30;;;;;;;28.98;46.10;101183.69;5022665;28;20383;-68
2023/09/16 09:01:28;;;;;;;9.13;8.27;;;;;;;29.33;44.59;101179.25;5019840;28;20029;-69
2023/09/16 09:03:54;;;;;;;8.18;7.38;;;;;;;29.94;43.22;101193.44;5022483;28;20037;-67
2023/09/16 09:06:21;;;;;;;7.85;7.05;;;;;;;30.49;42.15;101178.09;5017554;28;20033;-67
2023/09/16 09:08:47;;;;;;;9.88;8.98;;;;;;;30.96;41.20;101178.38;5016142;28;20029;-67
2023/09/16 09:11:15;;;;;;;11.82;9.38;;;;;;;31.53;40.24;101185.41;5020283;28;20091;-68
2023/09/16 09:13:45;;;;;;;10.48;9.48;;;;;;;31.41;40.21;101187.06;5022049;28;20030;-67
2023/09/16 09:16:14;;;;;;;10.20;9.30;;;;;;;31.23;39.66;101188.47;5012742;28;20074;-67
2023/09/16 09:18:40;;;;;;;10.10;9.10;;;;;;;31.35;38.59;101186.00;5023428;28;20067;-67
2023/09/16 09:21:05;;;;;;;9.35;8.55;;;;;;;32.05;38.81;101191.22;5022258;28;20025;-70
2023/09/16 09:23:31;;;;;;;8.57;7.78;;;;;;;32.45;38.69;101203.13;5021261;28;20053;-68
2023/09/16 09:25:57;;;;;;;10.30;9.23;;;;;;;32.65;38.00;101198.44;5019349;28;20254;-69
2023/09/16 09:28:22;;;;;;;10.60;9.15;;;;;;;33.09;36.66;101196.00;5022513;28;20698;-68
2023/09/16 09:30:49;;;;;;;8.32;7.53;;;;;;;33.59;36.25;101197.03;5021983;28;20137;-69
2023/09/16 09:33:20;;;;;;;8.15;7.38;;;;;;;33.11;35.80;101193.84;5020795;28;20017;-68
2023/09/16 09:35:45;;;;;;;8.30;7.50;;;;;;;32.84;35.00;101196.66;5022623;28;20044;-68
2023/09/16 09:38:11;;;;;;;8.63;7.60;;;;;;;31.60;36.63;101201.91;5020391;28;20022;-69
2023/09/16 09:40:36;;;;;;;8.02;7.10;;;;;;;31.44;37.96;101206.75;5020950;28;20159;-68
2023/09/16 09:43:02;;;;;;;7.82;7.10;;;;;;;31.87;37.19;101200.97;5020372;28;20117;-67
2023/09/16 09:45:35;;;;;;;7.35;6.60;;;;;;;31.77;37.32;101210.63;5018674;28;20473;-67
2023/09/16 09:48:00;;;;;;;7.32;6.55;;;;;;;32.27;36.85;101216.63;5020785;28;20235;-67
2023/09/16 09:50:30;;;;;;;6.93;6.28;;;;;;;32.75;36.37;101213.66;5018808;28;20060;-69
2023/09/16 09:52:56;;;;;;;6.95;6.35;;;;;;;33.19;35.34;101210.16;4999774;28;20168;-68
2023/09/16 09:55:24;;;;;;;9.80;6.55;;;;;;;33.51;34.01;101222.13;5018732;28;20022;-69
2023/09/16 09:57:51;;;;;;;7.28;6.30;;;;;;;34.39;33.19;101222.19;5022647;28;20034;-68
2023/09/16 10:00:19;;;;;;;7.82;6.57;;;;;;;34.28;33.31;101213.78;5019262;28;20112;-68
2023/09/16 10:02:47;;;;;;;8.65;7.20;;;;;;;34.52;33.28;101212.09;5020273;28;20033;-68
2023/09/16 10:05:19;;;;;;;8.07;6.97;;;;;;;34.97;32.71;101215.44;5018072;28;20280;-68
2023/09/16 10:07:46;;;;;;;10.10;7.18;;;;;;;35.31;31.48;101214.00;5018981;28;20112;-67
2023/09/16 10:10:13;;;;;;;7.88;6.88;;;;;;;35.91;30.76;101214.03;5021246;28;20037;-69
2023/09/16 10:12:39;;;;;;;8.05;7.25;;;;;;;35.78;30.32;101203.13;5021525;28;20060;-70
2023/09/16 10:15:07;;;;;;;17.60;7.32;;;;;;;35.78;30.81;101205.91;5021303;28;20029;-69
2023/09/16 10:17:32;;;;;;;11.25;7.93;;;;;;;36.36;30.32;101199.66;5020212;28;20029;-69
2023/09/16 10:19:59;;;;;;;7.60;6.82;;;;;;;36.56;29.70;101202.09;5021617;28;20463;-69
2023/09/16 10:22:25;;;;;;;55.50;10.80;;;;;;;37.00;29.10;101191.47;5015043;28;20241;-69
2023/09/16 10:24:50;;;;;;;8.43;7.53;;;;;;;36.60;29.14;101194.97;5020369;28;20057;-70
2023/09/16 10:27:22;;;;;;;8.32;7.40;;;;;;;36.36;30.23;101196.03;5021350;28;20029;-69
2023/09/16 10:29:49;;;;;;;7.32;6.63;;;;;;;36.89;30.35;101203.38;5020710;28;20038;-69
2023/09/16 10:32:16;;;;;;;7.63;6.93;;;;;;;37.17;29.40;101187.94;5020217;28;20499;-69
2023/09/16 10:34:45;;;;;;;7.88;7.18;;;;;;;37.09;28.55;101187.22;5003710;28;20037;-69
2023/09/16 10:37:13;;;;;;;8.95;8.15;;;;;;;37.53;28.50;101192.25;5014660;28;20083;-69
2023/09/16 10:39:39;;;;;;;9.15;8.15;;;;;;;37.31;28.05;101189.31;5007741;28;20037;-68
2023/09/16 10:42:09;;;;;;;8.55;7.75;;;;;;;36.97;29.18;101199.44;5015239;28;20025;-69
2023/09/16 10:44:39;;;;;;;9.30;8.35;;;;;;;36.51;30.20;101190.91;5019170;28;20033;-69
2023/09/16 10:47:06;;;;;;;8.55;7.65;;;;;;;36.20;29.72;101193.97;5000302;28;20032;-67
2023/09/16 10:49:32;;;;;;;9.70;8.80;;;;;;;36.70;28.54;101187.97;5019728;28;20040;-68
2023/09/16 10:52:03;;;;;;;9.55;8.35;;;;;;;36.62;29.74;101187.28;5019818;28;20282;-69
2023/09/16 10:54:45;;;;;;;9.63;8.70;;;;;;;36.76;29.83;101190.63;5019798;28;20029;-67
2023/09/16 10:57:18;;;;;;;8.82;7.97;;;;;;;36.94;29.55;101181.34;5021087;28;20021;-68
2023/09/16 10:59:47;;;;;;;8.80;8.00;;;;;;;37.51;28.29;101178.63;5018255;28;20028;-68
2023/09/16 11:02:38;;;;;;;9.02;8.23;;;;;;;38.49;28.41;101176.44;5021113;28;20124;-68
2023/09/16 11:05:07;;;;;;;8.45;7.75;;;;;;;38.29;27.29;101182.50;5004569;28;20574;-68